Grassy Key, Florida
Current Conditions -  °F | °C
As of 9:53 PM on Thursday 27 Nov 2014 (Local Time) from KMTH Reporting Station
Clear Clear  
Wind Chill: 69°   Ceiling: Unl
Heat Index: 69°   Visibility: 10mi
Dew Point: 57°   Wind: 13mph
Humidity: 65%   Direction: 360°N
Pressure: 30.2"   Gusts: 22mph
Location:  24.7161°N, 81.0717°W
Report Text: KMTH 280253Z AUTO 36011G19KT 10SM CLR 21/14 A3020 RMK AO2 SLP225 T02060139 51003
Loading
Personal Weather Stations






























Interactive Weather Map New forecast layout! Learn more

10-Day Weather Forecast

Advertisements
Track Severe Weather on mobile